Daly City, CA

12:00 PM PDT on September 02, 2014 (GMT -0700)
Crocker Amazon | Change Station
CLOSE
Current Station
Personal Weather Station
Location: San Francisco, CA
Elevation: 420 ft
Nearby Weather Stations

Elev 420 ft 37.71 °N, 122.44 °W | Updated 4 minutes ago

Partly Cloudy
Partly Cloudy
64.2 °F
Feels Like 64.2 °F
N
3.2
Wind Variable Wind from North

Today
High -- | Low -- °F
--% Chance of Precip.
Yesterday
High -- | Low -- °F
Precip. -- in
6:40 AM 7:37 PM
First Quarter, 54% visible
Pressure 29.85 in
Visibility 10.0 miles
Clouds Few 800 ft
Dew Point 61 °F
Humidity 89%
Rainfall 0.00 in
Snow Depth Not available.
UV 8 out of 12
Pollen 7.30 out of 12
PM2.5 Good
Flu Activity Not available.
METAR KSFO 021856Z 26012G17KT 10SM FEW008 23/15 A2985 RMK AO2 SLP107 T02280150 $

More Conditions Fewer Conditions

Pressure 29.85 in
Visibility 10.0 miles
Clouds Few 800 ft
Dew Point 61 °F
Humidity 89%
Rainfall 0.00 in
Snow Depth Not available.
UV 8 out of 12
Pollen 7.30 out of 12
PM2.5 Good
Flu Activity Not available.
METAR KSFO 021856Z 26012G17KT 10SM FEW008 23/15 A2985 RMK AO2 SLP107 T02280150 $

More Conditions Fewer Conditions

10-Day Weather Forecast

Almanac

Astronomy

Sep. 02, 2014 Rise Set
Actual Time 6:40 AM PDT 7:37 PM PDT
Civil Twilight 6:14 AM PDT 8:03 PM PDT
Nautical Twilight 5:42 AM PDT 8:35 PM PDT
Astronomical Twilight 5:09 AM PDT 9:08 PM PDT
Moon 2:22 PM PDT No Moon Set
Length of Visible Light 13h 49m
Length of Day
12h 56m
Tomorrow will be 2m 20s shorter.
First Quarter, 54% of the Moon is Illuminated
Today
First Quarter
Sep 8
Full
Sep 15
Last Quarter
Sep 24
New
Oct 1
First Quarter

Today's Extremes

State Highs State Lows

Community

WunderPhotos

Upload Photos

1,749,745 photos uploaded!

WunderBlogs® & News

By Dr. Jeff Masters
Director of Meteorology, Weather Underground
By Kari Strenfel
Meteorologist, Weather Underground
By Christopher C. Burt
Weather Historian, Weather Underground
September 2, 2014
September 2, 2014
September 2, 2014

Nearby

Air Quality

  Air Quality AQ Index Pollutant
Yesterday Moderate
PM2.5
Yesterday Good
OZONE
Current Good
PM2.5
Tuesday Good
PM2.5
Wednesday Good
PM2.5
Thursday Good
PM2.5
Friday Good
PM2.5
Saturday Good
PM2.5
Sunday Good
PM2.5

Snow Depth

Station Depth Elevation
Forestdale Creek 0 in 8029 ft
Fallen Leaf 0 in 6300 ft
CSS Lab 0 in 6900 ft
Leavitt Meadows 0 in 7200 ft
Summit Meadow 0 in 9122 ft

Earthquake Activity

City Distance Mag. Time & Date
Yountville, California 46 miles 2.6 1:15 PM PDT
2014-09-01
Gilroy, California 72 miles 3.5 9:10 AM PDT
2014-09-01
Green Valley, California 41 miles 2.5 6:37 AM PDT
2014-08-31
Napa, California 38 miles 3.2 1:56 AM PDT
2014-08-31
Minimum magnitude displayed is 2.5.

Coastal Water Temperatures

Place Temperature
No Stations Reporting

Nearby Weather Stations